Time;durP1;ratioP1;P1;durP2;ratioP2;P2;SDS_P1;SDS_P2;PMS_P1;PMS_P2;Temp;Humidity;BMP_temperature;BMP_pressure;BME280_temperature;BME280_humidity;BME280_pressure;Samples;Min_cycle;Max_cycle;Signal;HPM_P1;HPM_P2
2022/04/16 00:02:04;;;;;;;27.90;16.38;;;;;;;3.88;91.61;100926.13;10172081;29;20040;-75
2022/04/16 00:07:05;;;;;;;24.00;14.38;;;;;;;3.09;91.65;100803.97;10172744;29;20040;-74
2022/04/16 00:12:06;;;;;;;23.80;13.45;;;;;;;2.53;91.03;100751.03;10179179;29;20108;-74
2022/04/16 00:17:07;;;;;;;19.23;12.30;;;;;;;3.29;90.71;100888.34;10180126;29;20123;-74
2022/04/16 00:22:12;;;;;;;14.40;10.65;;;;;;;3.74;91.71;100954.34;10178239;29;20052;-74
2022/04/16 00:27:13;;;;;;;22.40;9.43;;;;;;;3.60;91.47;100943.03;10178194;29;20092;-75
2022/04/16 00:32:14;;;;;;;14.48;9.30;;;;;;;3.35;91.36;100924.66;10178099;29;20040;-75
2022/04/16 00:37:15;;;;;;;13.10;10.00;;;;;;;3.37;91.29;100928.03;10178297;29;20047;-74
2022/04/16 00:42:16;;;;;;;13.50;8.88;;;;;;;3.36;91.39;100944.75;10178429;29;20048;-74
2022/04/16 00:47:17;;;;;;;12.30;8.20;;;;;;;2.61;91.16;100858.06;10160805;29;20095;-74
2022/04/16 00:52:18;;;;;;;13.13;7.22;;;;;;;2.39;91.76;100814.06;10177193;29;20064;-75
2022/04/16 00:57:19;;;;;;;9.98;6.65;;;;;;;2.37;91.43;100834.34;10160180;29;20058;-75
2022/04/16 01:02:21;;;;;;;9.00;6.95;;;;;;;3.08;91.28;100943.16;10177983;29;20052;-74
2022/04/16 01:07:25;;;;;;;9.63;6.30;;;;;;;3.06;91.43;100952.97;10177779;29;20530;-74
2022/04/16 01:12:28;;;;;;;7.18;5.95;;;;;;;1.78;91.24;100716.84;10177077;29;20052;-74
2022/04/16 01:17:28;;;;;;;8.82;6.15;;;;;;;3.09;90.87;100929.97;10176192;29;20103;-74
2022/04/16 01:22:29;;;;;;;7.78;5.38;;;;;;;2.45;90.75;100835.50;10175790;29;20054;-75
2022/04/16 01:27:30;;;;;;;7.35;5.78;;;;;;;3.07;90.93;100949.38;10161149;29;20040;-74
2022/04/16 01:32:34;;;;;;;6.95;5.40;;;;;;;2.99;91.01;100934.16;10149834;29;20138;-74
2022/04/16 01:37:35;;;;;;;23.90;5.97;;;;;;;2.84;90.92;100916.81;10175694;29;20032;-74
2022/04/16 01:42:37;;;;;;;10.55;6.00;;;;;;;2.87;91.18;100920.09;10164756;29;20053;-74
2022/04/16 01:47:39;;;;;;;11.18;5.88;;;;;;;3.22;91.12;100961.44;10137537;29;20096;-74
2022/04/16 01:52:41;;;;;;;7.32;5.13;;;;;;;2.91;90.94;100900.56;10136936;29;20056;-74
2022/04/16 01:57:42;;;;;;;11.07;5.90;;;;;;;3.01;91.21;100945.38;10135833;29;20045;-74
2022/04/16 02:02:43;;;;;;;10.38;5.40;;;;;;;2.79;91.33;100924.19;10147982;29;20044;-74
2022/04/16 02:07:44;;;;;;;10.05;6.10;;;;;;;2.55;91.50;100892.56;10174728;29;20415;-74
2022/04/16 02:12:45;;;;;;;10.27;5.15;;;;;;;2.89;92.07;100938.34;10175563;29;20051;-74
2022/04/16 02:17:46;;;;;;;11.40;5.20;;;;;;;2.98;91.55;100984.97;10174632;29;20373;-74
2022/04/16 02:22:48;;;;;;;8.00;4.85;;;;;;;2.74;91.36;100972.53;10157073;29;20045;-75
2022/04/16 02:27:49;;;;;;;12.05;4.40;;;;;;;2.62;91.31;100957.63;10174257;29;20048;-75
2022/04/16 02:32:54;;;;;;;8.60;4.88;;;;;;;2.66;91.24;100968.75;10173829;29;20051;-74
2022/04/16 02:37:55;;;;;;;17.58;4.47;;;;;;;2.22;91.11;100873.72;10173870;29;20071;-74
2022/04/16 02:42:56;;;;;;;7.47;5.20;;;;;;;2.03;90.54;100792.00;10173040;29;20155;-74
2022/04/16 02:47:58;;;;;;;7.50;4.78;;;;;;;2.67;90.90;100855.03;10172892;29;20148;-75
2022/04/16 02:52:59;;;;;;;11.27;5.10;;;;;;;3.77;90.30;100951.50;10174223;29;20048;-75
2022/04/16 02:58:00;;;;;;;11.32;4.65;;;;;;;4.28;89.36;100967.13;10156437;29;20134;-75
2022/04/16 03:03:01;;;;;;;9.88;4.50;;;;;;;4.48;88.60;100957.72;10173387;29;20130;-74
2022/04/16 03:08:05;;;;;;;8.15;5.28;;;;;;;4.66;89.18;100932.66;10172332;29;20503;-75
2022/04/16 03:13:07;;;;;;;10.52;6.30;;;;;;;4.37;88.40;100816.50;10173231;29;20040;-75
2022/04/16 03:18:09;;;;;;;8.27;5.40;;;;;;;6.04;88.91;100979.09;10173253;29;20055;-75
2022/04/16 03:23:10;;;;;;;8.57;5.80;;;;;;;6.75;88.29;100967.09;10172166;29;20389;-75
2022/04/16 03:28:12;;;;;;;7.40;5.10;;;;;;;7.61;86.68;100995.97;10172783;29;20052;-75
2022/04/16 03:33:13;;;;;;;10.20;5.72;;;;;;;8.29;86.20;100996.19;10172127;29;20050;-75
2022/04/16 03:38:13;;;;;;;8.25;5.28;;;;;;;8.01;84.26;100867.13;10172816;29;20040;-75
2022/04/16 03:43:14;;;;;;;7.85;5.00;;;;;;;7.55;83.65;100892.41;10158153;29;20488;-75
2022/04/16 03:48:15;;;;;;;6.47;4.97;;;;;;;7.88;83.44;100903.63;10180329;29;20139;-74
2022/04/16 03:53:16;;;;;;;7.57;4.90;;;;;;;9.09;81.36;100948.22;10180042;29;20574;-74
2022/04/16 04:03:37;;;;;;;7.30;4.38;;;;;;;9.52;77.72;100853.97;10179205;29;20503;-75
2022/04/16 04:08:38;;;;;;;7.88;4.40;;;;;;;11.14;75.59;100940.53;10179553;29;20040;-75
2022/04/16 04:13:39;;;;;;;8.77;4.90;;;;;;;11.59;73.49;100930.63;10178652;29;20048;-75
2022/04/16 04:18:39;;;;;;;9.10;4.78;;;;;;;12.24;71.85;100961.97;10176535;29;20048;-75
2022/04/16 04:23:40;;;;;;;10.25;5.00;;;;;;;12.42;70.68;100956.50;10152648;29;20056;-75
2022/04/16 04:28:41;;;;;;;7.82;5.28;;;;;;;12.17;69.27;100879.19;10162793;29;20103;-75
2022/04/16 04:33:42;;;;;;;21.25;9.30;;;;;;;12.54;69.19;100971.16;10176941;29;20056;-75
2022/04/16 04:38:43;;;;;;;9.52;6.53;;;;;;;12.23;69.39;100864.38;10169501;29;20147;-75
2022/04/16 04:43:43;;;;;;;9.20;7.10;;;;;;;12.76;68.83;100954.50;10186660;29;20078;-74
2022/04/16 04:48:44;;;;;;;9.52;6.00;;;;;;;12.48;67.59;100926.53;10184376;29;20146;-74
2022/04/16 04:53:45;;;;;;;12.38;6.15;;;;;;;12.22;68.13;100930.16;10182658;29;20048;-75
2022/04/16 04:58:46;;;;;;;14.30;6.20;;;;;;;11.78;68.43;100892.25;10188350;29;20046;-74
2022/04/16 05:03:47;;;;;;;10.15;6.20;;;;;;;12.04;69.08;100970.22;10174821;29;20114;-74
2022/04/16 05:08:47;;;;;;;9.07;5.70;;;;;;;11.16;69.30;100832.19;10186915;29;20567;-74
2022/04/16 05:13:48;;;;;;;10.82;6.15;;;;;;;12.23;69.36;100957.63;10186060;29;20139;-75
2022/04/16 05:18:49;;;;;;;9.63;6.03;;;;;;;11.66;68.95;100794.06;10185209;29;20060;-75
2022/04/16 05:23:50;;;;;;;10.45;5.75;;;;;;;12.21;68.23;100850.44;10182617;29;20081;-74
2022/04/16 05:28:51;;;;;;;9.13;5.90;;;;;;;11.35;68.16;100652.88;10187645;29;20517;-74
2022/04/16 05:39:16;;;;;;;9.02;7.13;;;;;;;12.94;67.32;100892.16;10182572;29;20085;-75
2022/04/16 05:44:17;;;;;;;11.50;7.15;;;;;;;13.47;67.32;100976.94;10168787;29;20123;-74
2022/04/16 05:49:18;;;;;;;8.13;6.38;;;;;;;13.49;66.49;100910.03;10184480;29;20503;-75
2022/04/16 05:54:20;;;;;;;10.48;7.97;;;;;;;14.35;65.86;101007.06;10184837;29;20051;-75
2022/04/16 05:59:22;;;;;;;11.23;8.02;;;;;;;14.27;65.60;100973.22;10165486;29;20069;-76
2022/04/16 06:04:23;;;;;;;11.27;8.07;;;;;;;14.20;66.00;100934.03;10166544;29;20146;-74
2022/04/16 06:09:24;;;;;;;21.10;8.45;;;;;;;14.86;65.54;100980.66;10183007;29;20612;-73
2022/04/16 06:14:25;;;;;;;16.73;9.90;;;;;;;15.12;64.91;100972.22;10165831;29;20051;-74
2022/04/16 06:19:26;;;;;;;15.30;9.75;;;;;;;15.32;63.97;100971.72;10183113;29;20044;-74
2022/04/16 06:24:26;;;;;;;16.63;10.38;;;;;;;15.35;63.79;100966.81;10186332;29;20043;-74
2022/04/16 06:29:27;;;;;;;13.45;10.35;;;;;;;14.85;64.37;100869.34;10185200;29;20043;-75
2022/04/16 06:34:28;;;;;;;13.18;10.68;;;;;;;15.41;62.74;100950.03;10155410;29;20044;-76
2022/04/16 06:39:29;;;;;;;22.17;11.13;;;;;;;15.43;61.91;100945.28;10182690;29;20519;-77
2022/04/16 06:44:31;;;;;;;13.18;9.95;;;;;;;15.46;60.97;100872.63;10181396;29;20052;-77
2022/04/16 06:49:32;;;;;;;13.93;9.77;;;;;;;15.91;60.64;100892.16;10182440;29;20574;-76
2022/04/16 06:54:33;;;;;;;12.90;9.95;;;;;;;16.43;59.88;100951.88;10175944;29;20126;-76
2022/04/16 06:59:34;;;;;;;13.35;9.65;;;;;;;16.34;60.29;100885.97;10168717;29;20087;-78
2022/04/16 07:04:34;;;;;;;11.63;9.35;;;;;;;17.19;58.53;100946.72;10165828;29;20051;-78
2022/04/16 07:09:39;;;;;;;14.25;10.20;;;;;;;16.80;57.49;100854.19;10182190;29;20048;-78
2022/04/16 07:14:40;;;;;;;16.02;10.13;;;;;;;16.89;57.88;100834.22;10181562;29;20094;-76
2022/04/16 07:19:41;;;;;;;13.15;9.60;;;;;;;16.85;57.64;100932.25;10181206;29;20078;-75
2022/04/16 07:24:42;;;;;;;15.38;10.10;;;;;;;15.43;59.52;100843.56;10169638;29;20092;-76
2022/04/16 07:29:43;;;;;;;13.07;10.05;;;;;;;15.70;60.34;100927.78;10181284;29;20063;-76
2022/04/16 07:34:44;;;;;;;14.13;10.70;;;;;;;16.44;58.90;100922.16;10182264;29;20048;-76
2022/04/16 07:39:45;;;;;;;14.68;11.50;;;;;;;16.83;57.50;100885.97;10184003;29;20455;-75
2022/04/16 07:44:46;;;;;;;14.95;10.18;;;;;;;16.98;57.27;100899.28;10168832;29;20090;-73
2022/04/16 07:49:47;;;;;;;16.92;9.93;;;;;;;16.47;56.27;100776.13;10169242;29;20059;-75
2022/04/16 07:54:48;;;;;;;15.13;10.32;;;;;;;16.65;57.35;100881.06;10180924;29;20396;-75
2022/04/16 07:59:48;;;;;;;14.13;10.32;;;;;;;15.91;57.97;100833.22;10164335;29;20079;-74
2022/04/16 08:04:49;;;;;;;21.98;10.80;;;;;;;16.15;57.62;100840.03;10170983;29;20135;-73
2022/04/16 08:09:50;;;;;;;17.20;9.88;;;;;;;16.08;57.95;100830.28;10181401;29;20058;-72
2022/04/16 08:14:52;;;;;;;14.05;10.40;;;;;;;16.67;57.66;100865.63;10165849;29;20079;-72
2022/04/16 08:19:53;;;;;;;17.20;9.68;;;;;;;15.76;57.81;100722.59;10180274;29;20051;-74
2022/04/16 08:25:43;;;;;;;14.63;10.07;;;;;;;16.02;57.99;100791.66;10163089;29;20051;-73
2022/04/16 08:30:17;;;;;;;15.15;10.30;;;;;;;15.92;58.73;100834.03;10179940;29;20048;-72
2022/04/16 08:35:18;;;;;;;14.57;9.53;;;;;;;16.51;58.60;100838.25;10183171;29;20084;-73
2022/04/16 08:40:20;;;;;;;17.15;11.63;;;;;;;17.06;56.48;100805.19;10161515;29;20449;-74
2022/04/16 08:45:22;;;;;;;19.73;10.07;;;;;;;17.52;55.57;100809.09;10178062;29;20044;-74
2022/04/16 08:50:24;;;;;;;14.95;9.25;;;;;;;17.84;54.65;100791.41;10176448;29;20087;-73
2022/04/16 08:55:27;;;;;;;21.48;10.10;;;;;;;17.95;54.88;100801.56;10177260;29;20131;-74
2022/04/16 09:00:28;;;;;;;12.13;8.93;;;;;;;18.25;54.05;100745.53;10177068;29;20139;-73
2022/04/16 09:05:29;;;;;;;10.63;8.10;;;;;;;18.15;52.68;100738.91;10177834;29;20147;-73
2022/04/16 09:10:31;;;;;;;10.20;7.70;;;;;;;17.93;51.90;100712.25;10177728;29;20046;-72
2022/04/16 09:15:34;;;;;;;8.93;6.80;;;;;;;18.48;52.08;100785.41;10177114;29;20071;-72
2022/04/16 09:20:37;;;;;;;9.57;6.63;;;;;;;18.69;52.32;100764.66;10176271;29;20044;-72
2022/04/16 09:25:42;;;;;;;12.47;6.93;;;;;;;18.60;49.36;100752.47;10176660;29;20402;-72
2022/04/16 09:30:50;;;;;;;9.60;6.13;;;;;;;18.90;49.28;100764.41;10176426;29;20284;-72
2022/04/16 09:35:57;;;;;;;8.48;5.80;;;;;;;19.44;50.15;100735.38;10176018;29;20043;-73
2022/04/16 09:41:08;;;;;;;10.35;6.15;;;;;;;20.19;48.89;100765.13;10174984;29;20048;-73
2022/04/16 09:46:13;;;;;;;8.18;5.93;;;;;;;20.35;47.45;100760.22;10175765;29;20087;-73
2022/04/16 09:51:17;;;;;;;9.38;4.50;;;;;;;20.40;47.59;100747.72;10176143;29;20068;-73
2022/04/16 09:56:18;;;;;;;;;;;;;;;20.41;47.27;100748.53;10175428;29;20127;-73
2022/04/16 10:01:22;;;;;;;20.08;5.70;;;;;;;20.29;49.48;100740.34;10175501;29;20341;-75
2022/04/16 10:06:22;;;;;;;;;;;;;;;20.86;49.70;100737.47;10175863;29;20047;-71
2022/04/16 10:17:13;;;;;;;8.88;6.05;;;;;;;20.99;45.75;100729.19;10180361;29;20047;-74
2022/04/16 10:22:27;;;;;;;9.88;6.10;;;;;;;20.57;46.14;100730.94;10145272;29;20067;-74
2022/04/16 10:27:30;;;;;;;8.65;6.70;;;;;;;19.98;45.97;100704.31;10183161;29;20115;-73
2022/04/16 10:32:42;;;;;;;7.53;5.93;;;;;;;19.86;46.21;100594.72;10182865;29;20043;-72
2022/04/16 10:37:48;;;;;;;14.00;5.75;;;;;;;20.77;45.34;100734.25;10181352;29;20112;-72
2022/04/16 10:42:52;;;;;;;5.78;4.80;;;;;;;20.93;44.38;100713.91;10182432;29;20054;-73
2022/04/16 10:47:55;;;;;;;10.33;5.63;;;;;;;21.42;45.56;100691.22;10180993;29;20056;-74
2022/04/16 10:53:01;;;;;;;9.88;5.38;;;;;;;21.74;44.68;100709.84;10162239;29;20304;-74
2022/04/16 10:58:04;;;;;;;7.07;5.15;;;;;;;21.19;45.12;100653.31;10165802;29;20092;-76
2022/04/16 11:03:10;;;;;;;9.10;5.53;;;;;;;21.35;44.12;100692.34;10182429;29;20384;-77
2022/04/16 11:08:13;;;;;;;8.15;5.72;;;;;;;20.38;43.87;100587.09;10182104;29;20303;-74
2022/04/16 11:13:15;;;;;;;8.60;5.50;;;;;;;19.77;46.01;100575.31;10169408;29;20488;-76
2022/04/16 11:18:17;;;;;;;9.55;6.00;;;;;;;19.66;45.91;100656.91;10173661;29;20051;-80
2022/04/16 11:23:18;;;;;;;8.02;5.32;;;;;;;19.58;45.50;100614.84;10183071;29;20048;-74
2022/04/16 11:39:20;;;;;;;6.53;4.32;;;;;;;19.38;46.81;100644.63;10178655;29;20078;-76
2022/04/16 11:44:40;;;;;;;6.90;4.15;;;;;;;18.88;48.29;100570.00;10172183;29;20138;-76
2022/04/16 11:49:51;;;;;;;6.57;3.85;;;;;;;18.80;46.36;100599.06;10172801;29;20062;-76
2022/04/16 11:55:16;;;;;;;8.20;4.35;;;;;;;18.96;46.24;100598.53;10176716;29;20040;-76
2022/04/16 12:00:19;;;;;;;8.55;3.85;;;;;;;18.95;46.41;100629.19;10196785;29;20495;-77
2022/04/16 12:05:28;;;;;;;58.80;29.60;;;;;;;19.14;45.50;100627.41;10179619;29;20047;-74
2022/04/16 12:10:29;;;;;;;18.80;9.75;;;;;;;19.19;46.38;100608.72;10186588;29;20052;-74
2022/04/16 12:15:31;;;;;;;11.48;6.50;;;;;;;19.95;45.85;100609.53;10183901;29;20044;-76
2022/04/16 12:20:32;;;;;;;12.68;10.05;;;;;;;19.68;45.40;100506.56;10178576;29;20044;-77
2022/04/16 12:25:33;;;;;;;22.70;19.02;;;;;;;20.32;45.49;100607.69;10178276;29;20129;-74
2022/04/16 12:30:35;;;;;;;28.77;23.55;;;;;;;19.70;46.43;100571.88;10177747;29;20040;-73
2022/04/16 12:35:47;;;;;;;122.90;55.38;;;;;;;19.19;46.73;100597.97;10170236;29;20075;-73
2022/04/16 12:40:48;;;;;;;711.70;578.55;;;;;;;18.73;47.94;100574.03;10177519;29;20043;-73
2022/04/16 12:45:50;;;;;;;177.68;96.22;;;;;;;18.54;48.38;100592.72;10160401;29;20055;-73
2022/04/16 12:50:51;;;;;;;80.90;39.83;;;;;;;17.57;48.24;100420.63;10176498;29;20052;-74
2022/04/16 12:55:51;;;;;;;216.27;122.88;;;;;;;18.43;47.64;100499.28;10177633;29;20048;-74
2022/04/16 13:00:52;;;;;;;176.30;88.45;;;;;;;18.02;47.17;100387.59;10170512;29;20090;-74
2022/04/16 13:05:53;;;;;;;49.90;28.05;;;;;;;19.03;45.71;100513.16;10167481;29;20094;-74
2022/04/16 13:10:54;;;;;;;25.80;13.23;;;;;;;19.81;45.14;100581.91;10176674;29;20048;-74
2022/04/16 13:15:54;;;;;;;50.92;30.05;;;;;;;18.69;44.93;100418.34;10174090;29;20055;-75
2022/04/16 13:20:57;;;;;;;117.43;66.75;;;;;;;17.88;45.20;100282.03;10176146;29;20044;-76
2022/04/16 13:25:58;;;;;;;33.13;13.68;;;;;;;19.63;44.84;100584.56;10178747;29;20123;-75
2022/04/16 13:31:00;;;;;;;60.63;41.88;;;;;;;17.93;45.85;100343.22;10176327;29;20044;-75
2022/04/16 13:36:02;;;;;;;28.75;20.05;;;;;;;17.97;45.18;100347.91;10176151;29;20131;-75
2022/04/16 13:46:23;;;;;;;7.10;4.18;;;;;;;18.05;44.31;100292.28;10169509;29;20134;-75
2022/04/16 13:51:25;;;;;;;61.03;35.03;;;;;;;18.68;44.82;100402.44;10158124;29;20447;-74
2022/04/16 13:56:26;;;;;;;17.05;9.50;;;;;;;19.51;43.83;100571.00;10171394;29;20048;-75
2022/04/16 14:01:28;;;;;;;59.88;34.63;;;;;;;18.59;44.28;100450.31;10174309;29;20044;-74
2022/04/16 14:06:30;;;;;;;25.85;13.77;;;;;;;18.10;44.53;100395.41;10186058;29;20487;-74
2022/04/16 14:11:31;;;;;;;14.18;7.05;;;;;;;18.51;44.79;100430.91;10171016;29;20040;-74
2022/04/16 14:16:31;;;;;;;45.67;21.38;;;;;;;17.99;45.01;100367.34;10152125;29;20048;-75
2022/04/16 14:21:32;;;;;;;13.57;7.32;;;;;;;18.17;45.04;100441.91;10148657;29;20051;-74
2022/04/16 14:26:35;;;;;;;34.03;15.65;;;;;;;18.74;45.59;100565.75;10147315;29;20036;-74
2022/04/16 14:31:37;;;;;;;37.07;18.30;;;;;;;17.25;46.09;100357.13;10147076;29;20096;-74
2022/04/16 14:36:38;;;;;;;53.72;25.95;;;;;;;18.35;46.31;100569.44;10155172;29;20482;-74
2022/04/16 14:41:39;;;;;;;25.58;12.07;;;;;;;18.18;45.73;100539.50;10156488;29;20142;-73
2022/04/16 14:46:40;;;;;;;17.95;7.90;;;;;;;17.69;46.66;100479.91;10156448;29;20511;-74
2022/04/16 14:51:43;;;;;;;15.13;7.35;;;;;;;17.63;46.86;100512.16;10156848;29;20054;-74
2022/04/16 14:56:44;;;;;;;33.78;17.88;;;;;;;17.13;47.89;100436.66;10155475;29;20381;-73
2022/04/16 15:01:44;;;;;;;43.08;29.88;;;;;;;17.06;48.42;100452.78;10167166;29;20051;-73
2022/04/16 15:06:46;;;;;;;31.27;18.45;;;;;;;16.86;49.41;100450.09;10201570;29;20043;-73
2022/04/16 15:11:46;;;;;;;47.67;28.15;;;;;;;16.63;50.10;100437.03;10177285;29;20084;-73
2022/04/16 15:16:47;;;;;;;38.33;22.83;;;;;;;16.22;50.46;100397.81;10168635;29;20119;-73
2022/04/16 15:21:49;;;;;;;42.75;23.52;;;;;;;15.02;50.99;100222.59;10170303;29;20043;-73
2022/04/16 15:26:51;;;;;;;34.83;17.35;;;;;;;16.14;51.50;100430.97;10131310;29;20056;-73
2022/04/16 15:31:53;;;;;;;99.68;40.90;;;;;;;16.80;52.00;100558.22;10116751;29;20097;-75
2022/04/16 15:36:54;;;;;;;50.13;28.70;;;;;;;16.34;52.58;100503.41;10136882;29;20139;-73
2022/04/16 15:41:57;;;;;;;28.45;14.27;;;;;;;16.21;53.16;100514.09;10177870;29;20045;-73
2022/04/16 15:46:58;;;;;;;51.60;17.80;;;;;;;15.74;54.01;100470.22;10188057;29;20065;-73
2022/04/16 15:51:59;;;;;;;130.52;41.22;;;;;;;14.47;54.76;100299.97;10173650;29;20511;-73
2022/04/16 15:57:00;;;;;;;182.38;70.15;;;;;;;15.21;55.52;100459.97;10186196;29;20129;-72
2022/04/16 16:02:01;;;;;;;102.65;35.85;;;;;;;15.04;56.88;100491.53;10193095;29;20175;-73
2022/04/16 16:07:02;;;;;;;58.65;25.02;;;;;;;14.26;57.62;100404.22;10190485;29;20434;-73
2022/04/16 16:12:03;;;;;;;32.97;15.35;;;;;;;14.46;58.23;100473.91;10190760;29;20559;-73
2022/04/16 16:17:04;;;;;;;20.25;11.20;;;;;;;14.62;58.86;100551.22;10178748;29;20047;-75
2022/04/16 16:22:05;;;;;;;22.92;11.98;;;;;;;14.39;59.11;100543.34;10176170;29;20130;-73
2022/04/16 16:27:07;;;;;;;18.48;9.63;;;;;;;14.06;59.38;100510.84;10173994;29;20511;-74
2022/04/16 16:32:10;;;;;;;32.03;10.07;;;;;;;14.25;60.32;100600.31;10170548;29;20147;-75
2022/04/16 16:37:11;;;;;;;17.17;8.77;;;;;;;13.29;60.51;100476.56;10156914;29;20411;-74
2022/04/16 16:42:12;;;;;;;67.13;22.42;;;;;;;12.75;61.08;100427.69;10187324;29;20063;-74
2022/04/16 16:47:13;;;;;;;46.92;17.15;;;;;;;13.14;61.34;100503.19;10177426;29;20122;-73
2022/04/16 16:52:15;;;;;;;25.52;11.02;;;;;;;13.15;61.21;100523.50;10160679;29;20182;-73
2022/04/16 16:57:17;;;;;;;17.33;9.63;;;;;;;13.07;61.63;100521.72;10177787;29;20048;-72
2022/04/16 17:07:39;;;;;;;32.20;19.27;;;;;;;12.98;61.85;100520.13;10172891;29;20801;-74
2022/04/16 17:12:40;;;;;;;15.82;9.88;;;;;;;13.24;61.71;100576.59;10164251;29;20500;-73
2022/04/16 17:23:00;;;;;;;19.80;10.60;;;;;;;12.79;62.62;100556.94;10137527;29;20055;-73
2022/04/16 17:28:01;;;;;;;61.50;23.88;;;;;;;12.55;63.28;100552.59;10145293;29;20043;-73
2022/04/16 17:33:02;;;;;;;37.63;14.15;;;;;;;12.10;64.12;100524.03;10190470;29;20138;-72
2022/04/16 17:38:04;;;;;;;28.83;15.85;;;;;;;11.40;64.53;100426.31;10188635;29;20036;-73
2022/04/16 17:43:08;;;;;;;56.05;22.88;;;;;;;12.37;64.75;100596.50;10187637;29;20042;-75
2022/04/16 17:48:09;;;;;;;29.83;12.00;;;;;;;11.26;64.56;100419.84;10178161;29;20060;-72
2022/04/16 17:53:11;;;;;;;25.42;12.40;;;;;;;11.34;65.75;100449.09;10176171;29;20055;-72
2022/04/16 17:58:11;;;;;;;28.88;10.20;;;;;;;12.17;66.14;100612.03;10185707;29;20126;-75
2022/04/16 18:03:13;;;;;;;58.10;17.27;;;;;;;10.76;66.98;100394.34;10188649;29;20052;-73
2022/04/16 18:08:14;;;;;;;36.35;13.27;;;;;;;12.05;67.75;100627.56;10181995;29;20048;-73
2022/04/16 18:13:15;;;;;;;64.55;22.45;;;;;;;11.61;67.18;100562.25;10183240;29;20044;-74
2022/04/16 18:18:17;;;;;;;43.80;15.95;;;;;;;11.24;67.61;100514.09;10174479;29;20042;-75
2022/04/16 18:23:18;;;;;;;46.50;10.15;;;;;;;11.64;68.54;100623.13;10146224;29;20070;-75
2022/04/16 18:28:18;;;;;;;20.27;8.45;;;;;;;11.05;69.32;100540.03;10173446;29;20040;-75
2022/04/16 18:33:19;;;;;;;24.60;9.38;;;;;;;11.72;68.76;100634.75;10171019;29;20044;-74
2022/04/16 18:38:20;;;;;;;19.70;8.25;;;;;;;11.09;69.07;100540.53;10171286;29;20036;-76
2022/04/16 18:43:21;;;;;;;19.65;8.07;;;;;;;10.55;69.19;100465.75;10155474;29;20047;-74
2022/04/16 18:48:22;;;;;;;26.60;8.35;;;;;;;11.29;69.92;100618.97;10171191;29;20080;-71
2022/04/16 18:53:23;;;;;;;25.85;7.25;;;;;;;10.54;70.49;100525.22;10172043;29;20056;-75
2022/04/16 18:58:24;;;;;;;22.75;11.27;;;;;;;10.40;70.75;100492.97;10173417;29;20098;-73
2022/04/16 19:08:44;;;;;;;23.23;8.55;;;;;;;10.15;70.51;100475.31;10172902;29;20407;-74
2022/04/16 19:13:47;;;;;;;83.85;32.20;;;;;;;10.28;70.77;100521.66;10173286;29;20135;-74
2022/04/16 19:18:48;;;;;;;101.35;35.05;;;;;;;9.25;70.09;100366.22;10155940;29;20047;-74
2022/04/16 19:23:49;;;;;;;95.72;33.15;;;;;;;10.37;69.94;100525.16;10155716;29;20044;-75
2022/04/16 19:28:50;;;;;;;55.95;20.77;;;;;;;10.22;70.20;100495.72;10172796;29;20126;-76
2022/04/16 19:33:51;;;;;;;52.83;19.45;;;;;;;10.66;69.99;100561.09;10173537;29;20131;-75
2022/04/16 19:38:52;;;;;;;35.47;14.93;;;;;;;10.36;70.08;100509.41;10171945;29;20055;-74
2022/04/16 19:43:53;;;;;;;31.50;10.40;;;;;;;10.12;69.70;100452.56;10154889;29;20496;-74
2022/04/16 19:48:55;;;;;;;19.00;8.95;;;;;;;9.93;71.14;100485.53;10171988;29;20089;-74
2022/04/16 19:53:56;;;;;;;13.48;8.05;;;;;;;9.63;72.25;100499.28;10172326;29;20063;-75
2022/04/16 19:58:56;;;;;;;32.55;9.70;;;;;;;8.84;73.18;100408.38;10172465;29;20063;-74
2022/04/16 20:03:57;;;;;;;23.63;10.63;;;;;;;10.00;73.15;100618.41;10172263;29;20143;-74
2022/04/16 20:14:17;;;;;;;53.45;20.40;;;;;;;9.92;72.05;100563.44;10170148;29;20043;-73
2022/04/16 20:19:23;;;;;;;62.97;20.90;;;;;;;10.38;72.16;100626.91;10171625;29;20178;-74
2022/04/16 20:24:28;;;;;;;22.98;9.75;;;;;;;10.24;71.90;100584.00;10156450;29;20088;-73
2022/04/16 20:29:29;;;;;;;21.83;9.20;;;;;;;9.57;71.83;100467.13;10162198;29;20074;-76
2022/04/16 20:34:30;;;;;;;22.88;10.90;;;;;;;10.48;72.40;100627.63;10161557;29;20044;-73
2022/04/16 20:45:18;;;;;;;27.02;11.85;;;;;;;9.79;72.58;100517.97;10162025;29;20048;-74
2022/04/16 20:50:10;;;;;;;23.92;10.25;;;;;;;10.04;73.82;100588.72;10177535;29;20064;-74
2022/04/16 20:55:11;;;;;;;13.48;8.25;;;;;;;10.23;74.28;100610.69;10160544;29;20039;-73
2022/04/16 21:00:12;;;;;;;21.13;10.52;;;;;;;9.90;74.51;100572.56;10178246;29;20404;-74
2022/04/16 21:05:13;;;;;;;20.65;9.98;;;;;;;9.51;74.83;100512.84;10177546;29;20036;-74
2022/04/16 21:10:14;;;;;;;21.95;10.32;;;;;;;9.46;75.24;100533.69;10177213;29;20571;-74
2022/04/16 21:15:16;;;;;;;33.05;16.67;;;;;;;9.24;76.18;100526.22;10160767;29;20511;-73
2022/04/16 21:20:17;;;;;;;16.23;7.65;;;;;;;8.34;76.13;100388.59;10177112;29;20484;-74
2022/04/16 21:25:17;;;;;;;11.23;6.28;;;;;;;7.37;76.25;100228.03;10176826;29;20044;-73
2022/04/16 21:30:18;;;;;;;11.77;5.40;;;;;;;8.25;76.57;100360.38;10176530;29;20083;-74
2022/04/16 21:35:19;;;;;;;23.20;8.48;;;;;;;8.41;76.99;100410.88;10158427;29;20515;-74
2022/04/16 21:40:20;;;;;;;9.00;4.93;;;;;;;8.81;77.39;100464.31;10175999;29;20056;-74
2022/04/16 21:45:21;;;;;;;11.27;5.20;;;;;;;8.41;77.58;100397.63;10175645;29;20051;-73
2022/04/16 21:50:22;;;;;;;9.48;5.40;;;;;;;7.50;77.21;100238.22;10158642;29;20059;-73
2022/04/16 21:55:23;;;;;;;8.32;5.25;;;;;;;9.19;77.41;100515.28;10175672;29;20131;-74
2022/04/16 22:00:36;;;;;;;10.88;5.70;;;;;;;9.69;79.85;100588.84;10158769;29;20599;-73
2022/04/16 22:05:37;;;;;;;7.70;4.82;;;;;;;8.36;78.20;100404.31;10175319;29;20048;-73
2022/04/16 22:10:40;;;;;;;8.27;5.20;;;;;;;8.28;78.67;100377.78;10159162;29;20078;-74
2022/04/16 22:15:41;;;;;;;9.03;5.57;;;;;;;9.14;78.38;100507.78;10157357;29;20511;-74
2022/04/16 22:20:42;;;;;;;10.23;5.10;;;;;;;9.21;78.26;100526.53;10174610;29;20047;-74
2022/04/16 22:25:43;;;;;;;11.50;4.93;;;;;;;9.27;78.62;100544.47;10157307;29;20115;-74
2022/04/16 22:30:44;;;;;;;8.85;5.07;;;;;;;8.12;78.40;100359.94;10175158;29;20472;-74
2022/04/16 22:35:45;;;;;;;8.80;5.18;;;;;;;8.83;78.84;100484.38;10174819;29;20043;-74
2022/04/16 22:41:03;;;;;;;7.93;4.60;;;;;;;7.80;78.47;100313.69;10173930;29;20040;-74
2022/04/16 22:46:06;;;;;;;8.65;4.93;;;;;;;8.83;79.11;100516.16;10173521;29;20095;-74
2022/04/16 22:51:07;;;;;;;7.28;4.78;;;;;;;8.26;79.09;100485.63;10154064;29;20056;-74
2022/04/16 22:56:08;;;;;;;8.63;5.88;;;;;;;8.16;79.77;100499.72;10173000;29;20044;-74
2022/04/16 23:01:09;;;;;;;8.65;4.78;;;;;;;7.35;80.33;100383.25;10174221;29;20518;-74
2022/04/16 23:06:11;;;;;;;7.82;4.93;;;;;;;6.52;80.43;100250.28;10172407;29;20047;-74
2022/04/16 23:11:11;;;;;;;15.70;6.00;;;;;;;7.54;80.68;100406.13;10172975;29;20044;-74
2022/04/16 23:21:32;;;;;;;25.88;9.80;;;;;;;7.52;81.11;100400.16;10172801;29;20047;-74
2022/04/16 23:26:34;;;;;;;14.63;7.93;;;;;;;7.44;81.53;100376.25;10155854;29;20079;-75
2022/04/16 23:31:35;;;;;;;15.10;7.60;;;;;;;7.06;81.68;100315.53;10155795;29;20052;-74
2022/04/16 23:36:36;;;;;;;33.85;17.33;;;;;;;7.36;81.39;100352.34;10172696;29;20491;-74
2022/04/16 23:41:38;;;;;;;21.98;10.77;;;;;;;8.20;81.61;100500.28;10172886;29;20048;-74
2022/04/16 23:46:57;;;;;;;16.63;9.13;;;;;;;8.24;82.26;100539.53;10154973;29;20063;-75
2022/04/16 23:51:58;;;;;;;14.13;6.18;;;;;;;7.41;81.99;100392.41;10172192;29;20052;-74
2022/04/16 23:56:59;;;;;;;16.10;7.38;;;;;;;7.39;82.27;100402.28;10172468;29;20052;-74
